KSBA/SBA METAR and TAF weather

Enter ICAO airport designator
Station Type Date Time Source
KSBA METAR 2019/02/17 15:53 UTC NOAA

KSBA 171553Z 26008KT 10SM FEW050 10/03 A3010 RMK AO2 SLP192 T01000028 $


Station Type Date Time Source
KSBA Decoded METAR 2019/02/17 15:53 UTC NOAA

SANTA BARBARA MUNICIPAL, CA, United States (KSBA) 34-26N 119-51W 3M
Feb 17, 2019 - 10:53 AM EST / 2019.02.17 1553 UTC
Wind: from the W (260 degrees) at 9 MPH (8 KT):0
Visibility: 10 mile(s):0
Sky conditions: mostly clear
Temperature: 50.0 F (10.0 C)
Dew Point: 37.0 F (2.8 C)
Relative Humidity: 60%
Pressure (altimeter): 30.1 in. Hg (1019 hPa)
ob: KSBA 171553Z 26008KT 10SM FEW050 10/03 A3010 RMK AO2 SLP192 T01000028
cycle: 16

Station Type Date Time Source
KSBA TAF 2019/02/17 15:06 UTC NOAA

TAF
AMD KSBA 171503Z 1715/1812 33013G24KT P6SM VCSH SKC
FM171600 27012G18KT 4SM -SHRA BR OVC025
FM172000 30020G30KT P6SM VCSH BKN035
FM180300 31015G23KT P6SM BKN050
FM180600 31012KT P6SM SCT050


Example: see airport list